Flight Track Log - Related Links

Times and Time Zones

All times are in EDT time to prevent confusion due to time zone crossing. See the OPT429 flight status page for this flight to view local times or setup timezone preferences in your user account.

Time Position Orientation Groundspeed Altitude Reporting Facility
EDT Latitude Longitude Course Direction KTS MPH feet Rate Location/Type
Mon 04:01:53 PM 33.6167 -111.9167 282° West 148 170 2,100  Level Phoenix TRACON
Mon 04:03:10 PM 33.6275 -111.9797 282° West 175 201 4,400 1,942 Climbing Albuquerque Center
Mon 04:04:12 PM 33.6900 -112.0119 337° Northwest 260 299 6,600 2,195 Climbing Albuquerque Center
Mon 04:05:13 PM 33.7581 -111.9569 34° Northeast 295 339 8,900 2,244 Climbing Albuquerque Center
Mon 04:06:15 PM 33.8311 -111.9000 33° Northeast 309 356 11,200 2,129 Climbing Albuquerque Center
Mon 04:07:17 PM 33.9089 -111.8397 33° Northeast 329 379 13,300 2,129 Climbing Albuquerque Center
Mon 04:08:19 PM 34.0039 -111.7658 33° Northeast 355 409 15,600 2,098 Climbing Albuquerque Center
Mon 04:09:20 PM 34.0956 -111.7122 26° Northeast 380 437 17,600 2,049 Climbing Albuquerque Center
Mon 04:10:22 PM 34.1956 -111.6725 18° North 380 437 19,800 2,129 Climbing Albuquerque Center
Mon 04:11:24 PM 34.2983 -111.6319 18° North 387 445 22,000 2,032 Climbing Albuquerque Center
Mon 04:12:26 PM 34.4000 -111.5922 18° North 387 445 24,000 1,854 Climbing Albuquerque Center
Mon 04:13:27 PM 34.5011 -111.5522 18° North 386 444 25,800 1,854 Climbing Albuquerque Center
Mon 04:14:29 PM 34.6269 -111.5533 360° North 375 432 27,800 1,790 Climbing Albuquerque Center
Mon 04:15:31 PM 34.7322 -111.5781 349° North 380 437 29,500 1,645 Climbing Albuquerque Center
Mon 04:16:33 PM 34.8325 -111.6147 343° North 380 437 31,200 1,694 Climbing Albuquerque Center
Mon 04:17:35 PM 34.9269 -111.6611 338° Northwest 372 428 33,000 1,561 Climbing Albuquerque Center
Mon 04:18:36 PM 35.0236 -111.7039 340° North 370 426 34,400 1,171 Climbing Albuquerque Center
Mon 04:19:38 PM 35.1239 -111.7514 339° North 372 428 35,400 968 Climbing Albuquerque Center
Mon 04:20:40 PM 35.2247 -111.7978 339° North 383 441 36,400 927 Climbing Albuquerque Center
Mon 04:21:41 PM 35.3475 -111.8558 339° North 392 451 37,300 850 Climbing Albuquerque Center
Mon 04:22:33 PM 35.4319 -111.8958 339° North 401 461 38,000 895 Climbing Los Angeles Center
Mon 04:23:35 PM 35.5372 -111.9447 339° North 403 464 39,000 919 Climbing Los Angeles Center
Mon 04:24:37 PM 35.6406 -111.9936 339° North 403 464 39,900 624 Climbing Los Angeles Center
Mon 04:25:40 PM 35.7431 -112.0408 339° North 399 459 40,300 528 Climbing Los Angeles Center
Mon 04:26:42 PM 35.8681 -112.1008 339° North 400 460 41,000 581 Climbing Los Angeles Center
Mon 04:27:44 PM 35.9750 -112.1456 341° North 406 467 41,500 484 Climbing Los Angeles Center
Mon 04:28:46 PM 36.0897 -112.1553 356° North 418 481 42,000 435 Climbing Los Angeles Center
Mon 04:29:48 PM 36.2086 -112.1661 356° North 418 481 42,400 387 Climbing Los Angeles Center
Mon 04:30:50 PM 36.3236 -112.1767 356° North 417 480 42,800 288 Climbing Los Angeles Center
Mon 04:31:53 PM 36.4597 -112.1897 356° North 412 474 43,000 96 Climbing Los Angeles Center
Mon 04:32:55 PM 36.5736 -112.1992 356° North 412 474 43,000  Level Los Angeles Center
Mon 04:33:57 PM 36.6892 -112.2108 355° North 414 476 43,000  Level Los Angeles Center
Mon 04:34:59 PM 36.8042 -112.2214 356° North 415 478 43,000  Level Los Angeles Center
Mon 04:36:01 PM 36.9225 -112.2322 356° North 423 487 43,000  Level Los Angeles Center
Mon 04:37:03 PM 37.0406 -112.2431 356° North 424 488 43,000  Level Los Angeles Center
Mon 04:38:06 PM 37.1839 -112.2547 356° North 428 493 43,000  Level Los Angeles Center
Mon 04:39:08 PM 37.3025 -112.2672 355° North 429 494 43,000  Level Los Angeles Center
Mon 04:40:10 PM 37.4197 -112.2775 356° North 429 494 43,000  Level Los Angeles Center
Mon 04:40:52 PM 37.5122 -112.2869 355° North 427 491 43,000  Level Salt Lake Center
Mon 04:41:54 PM 37.6281 -112.2950 357° North 425 489 43,000  Level Salt Lake Center
Mon 04:42:56 PM 37.7419 -112.3028 357° North 418 481 43,000  Level Salt Lake Center
Mon 04:43:57 PM 37.8544 -112.3092 357° North 413 475 43,000  Level Salt Lake Center
Mon 04:44:59 PM 37.9664 -112.3167 357° North 406 467 43,000  Level Salt Lake Center
Mon 04:46:01 PM 38.1014 -112.3253 357° North 406 467 43,000  Level Salt Lake Center
Mon 04:47:03 PM 38.2150 -112.3328 357° North 407 468 43,000  Level Salt Lake Center
Mon 04:48:05 PM 38.3283 -112.3394 357° North 408 470 43,000  Level Salt Lake Center
Mon 04:49:06 PM 38.4431 -112.3467 357° North 410 472 43,000  Level Salt Lake Center
Mon 04:50:08 PM 38.5581 -112.3550 357° North 412 474 43,000  Level Salt Lake Center
Mon 04:51:10 PM 38.6736 -112.3628 357° North 414 476 43,000  Level Salt Lake Center
Mon 04:52:12 PM 38.7878 -112.3692 358° North 414 476 43,000  Level Salt Lake Center
Mon 04:53:13 PM 38.9233 -112.3778 357° North 410 472 43,000  Level Salt Lake Center
Mon 04:54:15 PM 39.0369 -112.3861 357° North 409 471 43,000  Level Salt Lake Center
Mon 04:55:17 PM 39.1503 -112.3928 357° North 409 471 43,000  Level Salt Lake Center
Mon 04:56:18 PM 39.2583 -112.3994 357° North 408 470 43,000  Level Salt Lake Center
Mon 04:57:20 PM 39.3719 -112.4078 357° North 408 470 43,000  Level Salt Lake Center
Mon 04:58:22 PM 39.5086 -112.4164 357° North 409 471 43,000  Level Salt Lake Center
Mon 04:59:24 PM 39.6233 -112.4233 357° North 412 474 43,000  Level Salt Lake Center
Mon 05:00:25 PM 39.7392 -112.4314 357° North 413 475 43,000  Level Salt Lake Center
Mon 05:01:27 PM 39.8547 -112.4397 357° North 414 476 43,000  Level Salt Lake Center
Mon 05:02:29 PM 39.9725 -112.4467 357° North 423 487 43,000  Level Salt Lake Center
Mon 05:03:30 PM 40.0897 -112.4542 357° North 422 486 43,000  Level Salt Lake Center
Mon 05:04:32 PM 40.2075 -112.4628 357° North 423 487 43,000  Level Salt Lake Center
Mon 05:05:34 PM 40.3250 -112.4694 358° North 423 487 43,000  Level Salt Lake Center
Mon 05:06:36 PM 40.4683 -112.4847 355° North 427 491 43,000  Level Salt Lake Center
Mon 05:07:37 PM 40.5625 -112.5589 329° Northwest 393 452 43,000  Level Salt Lake Center
Mon 05:08:39 PM 40.6356 -112.6608 313° West 382 440 43,000  Level Salt Lake Center
Mon 05:09:41 PM 40.7142 -112.7567 317° Northwest 383 441 43,000  Level Salt Lake Center
Mon 05:10:42 PM 40.7969 -112.8514 319° Northwest 389 448 43,000  Level Salt Lake Center
Mon 05:11:44 PM 40.8764 -112.9461 318° Northwest 384 442 43,000  Level Salt Lake Center
Mon 05:12:46 PM 40.9586 -113.0406 319° Northwest 387 445 43,000  Level Salt Lake Center
Mon 05:13:48 PM 41.0417 -113.1361 319° Northwest 393 452 43,000  Level Salt Lake Center
Mon 05:14:49 PM 41.1400 -113.2514 319° Northwest 393 452 43,000  Level Salt Lake Center
Mon 05:15:51 PM 41.2228 -113.3481 319° Northwest 393 452 43,000  Level Salt Lake Center
Mon 05:16:53 PM 41.3053 -113.4444 319° Northwest 393 452 43,000  Level Salt Lake Center
Mon 05:17:55 PM 41.3864 -113.5408 318° Northwest 393 452 43,000  Level Salt Lake Center
Mon 05:18:57 PM 41.4703 -113.6364 320° Northwest 396 456 43,000  Level Salt Lake Center
Mon 05:19:58 PM 41.5522 -113.7347 318° Northwest 396 456 43,000  Level Salt Lake Center
Mon 05:21:00 PM 41.6342 -113.8311 319° Northwest 396 456 43,000  Level Salt Lake Center
Mon 05:22:02 PM 41.7328 -113.9483 318° Northwest 396 456 43,000  Level Salt Lake Center
Mon 05:23:04 PM 41.8144 -114.0458 318° Northwest 395 455 43,000  Level Salt Lake Center
Mon 05:24:05 PM 41.8956 -114.1428 318° Northwest 394 453 43,000  Level Salt Lake Center
Mon 05:25:07 PM 41.9747 -114.2406 317° Northwest 391 450 43,000  Level Salt Lake Center
Mon 05:26:09 PM 42.0544 -114.3378 318° Northwest 390 449 43,000  Level Salt Lake Center
Mon 05:27:11 PM 42.1353 -114.4347 318° Northwest 390 449 43,000  Level Salt Lake Center
Mon 05:28:13 PM 42.2144 -114.5308 318° Northwest 385 443 43,000  Level Salt Lake Center
Mon 05:29:15 PM 42.3075 -114.6453 318° Northwest 379 436 43,000  Level Salt Lake Center
Mon 05:30:16 PM 42.3850 -114.7403 318° Northwest 378 435 43,000  Level Salt Lake Center
Mon 05:31:18 PM 42.4631 -114.8364 318° Northwest 379 436 43,000  Level Salt Lake Center
Mon 05:32:20 PM 42.5497 -114.9422 318° Northwest 375 432 43,000  Level Salt Lake Center
Mon 05:33:22 PM 42.6294 -115.0411 318° Northwest 382 440 43,000  Level Salt Lake Center
Mon 05:34:24 PM 42.7097 -115.1428 317° Northwest 394 453 43,000  Level Salt Lake Center
Mon 05:36:28 PM 42.8733 -115.3458 318° Northwest 398 458 43,000  Level Salt Lake Center
Mon 05:37:30 PM 42.9558 -115.4503 317° Northwest 402 463 43,000  Level Salt Lake Center
Mon 05:38:31 PM 43.0383 -115.5539 317° Northwest 402 463 43,000  Level Salt Lake Center
Mon 05:39:33 PM 43.1378 -115.6822 317° Northwest 407 468 43,000  Level Salt Lake Center
Mon 05:40:35 PM 43.2214 -115.7878 317° Northwest 408 470 43,000  Level Salt Lake Center
Mon 05:41:37 PM 43.3044 -115.8944 317° Northwest 409 471 43,000  Level Salt Lake Center
Mon 05:42:39 PM 43.3883 -116.0025 317° Northwest 410 472 43,000  Level Salt Lake Center
Mon 05:43:41 PM 43.4717 -116.1106 317° Northwest 411 473 43,000  Level Salt Lake Center
Mon 05:44:43 PM 43.5556 -116.2200 317° Northwest 414 476 43,000  Level Salt Lake Center
Mon 05:45:44 PM 43.6394 -116.3281 317° Northwest 413 475 43,000  Level Salt Lake Center
Mon 05:46:46 PM 43.7408 -116.4594 317° Northwest 414 476 43,000  Level Salt Lake Center
Mon 05:47:48 PM 43.8233 -116.5694 316° Northwest 412 474 43,000  Level Salt Lake Center
Mon 05:48:50 PM 43.9061 -116.6783 317° Northwest 410 472 43,000  Level Salt Lake Center
Mon 05:49:52 PM 43.9889 -116.7869 317° Northwest 410 472 43,000  Level Salt Lake Center
Mon 05:50:54 PM 44.0711 -116.8956 317° Northwest 407 468 43,000  Level Salt Lake Center
Mon 05:51:56 PM 44.1517 -117.0028 316° Northwest 403 464 43,000  Level Salt Lake Center
Mon 05:52:57 PM 44.2331 -117.1114 316° Northwest 402 463 43,000  Level Salt Lake Center
Mon 05:53:59 PM 44.3150 -117.2200 317° Northwest 403 464 43,000  Level Salt Lake Center
Mon 05:55:01 PM 44.4133 -117.3525 316° Northwest 406 467 43,000  Level Salt Lake Center
Mon 05:56:03 PM 44.4933 -117.4628 316° Northwest 405 466 43,000  Level Salt Lake Center
Mon 05:57:05 PM 44.5742 -117.5722 316° Northwest 405 466 43,000  Level Salt Lake Center
Mon 05:58:07 PM 44.6556 -117.6836 316° Northwest 406 467 43,000  Level Salt Lake Center
Mon 05:58:39 PM 44.7047 -117.7497 316° Northwest 407 468 43,000  Level Seattle Center
Mon 05:59:40 PM 44.7864 -117.8619 316° Northwest 408 470 43,000  Level Seattle Center
Mon 06:00:10 PM 44.8181 -117.9083 314° West 409 471 43,000  Level Salt Lake Center
Mon 06:01:12 PM 44.9014 -118.0211 316° Northwest 412 474 43,000  Level Salt Lake Center
Mon 06:02:14 PM 44.9892 -118.1447 315° West 412 474 43,000  Level Salt Lake Center
Mon 06:02:44 PM 45.0381 -118.2122 316° Northwest 413 475 43,000  Level Seattle Center
Mon 06:03:45 PM 45.1189 -118.3272 315° West 413 475 43,000  Level Seattle Center
Mon 06:04:46 PM 45.2006 -118.4417 315° West 414 476 43,000  Level Seattle Center
Mon 06:05:47 PM 45.2808 -118.5547 315° West 411 473 43,000  Level Seattle Center
Mon 06:06:48 PM 45.3606 -118.6683 315° West 410 472 43,000  Level Seattle Center
Mon 06:07:49 PM 45.4397 -118.7814 315° West 408 470 43,000  Level Seattle Center
Mon 06:08:50 PM 45.5178 -118.8928 315° West 405 466 43,000  Level Seattle Center
Mon 06:09:51 PM 45.5978 -119.0075 315° West 405 466 43,000  Level Seattle Center
Mon 06:10:53 PM 45.6925 -119.1447 315° West 405 466 43,000  Level Seattle Center
Mon 06:11:54 PM 45.7697 -119.2567 315° West 404 465 43,000  Level Seattle Center
Mon 06:12:55 PM 45.8489 -119.3708 315° West 404 465 43,000  Level Seattle Center
Mon 06:13:56 PM 45.9275 -119.4861 314° West 404 465 43,000  Level Seattle Center
Mon 06:14:57 PM 46.0064 -119.6033 314° West 407 468 43,000  Level Seattle Center
Mon 06:15:58 PM 46.0847 -119.7197 314° West 408 470 43,000 -344 Level Seattle Center
Mon 06:16:59 PM 46.1644 -119.8358 315° West 408 470 42,300 -984 Descending Seattle Center
Mon 06:18:00 PM 46.2444 -119.9542 314° West 410 472 41,000 -1,475 Descending Seattle Center
Mon 06:19:01 PM 46.3211 -120.0717 313° West 406 467 39,300 -1,672 Descending Seattle Center
Mon 06:20:02 PM 46.3997 -120.1869 315° West 406 467 37,600 -1,918 Descending Seattle Center
Mon 06:21:03 PM 46.4939 -120.3311 314° West 410 472 35,400 -2,164 Descending Seattle Center
Mon 06:22:04 PM 46.5717 -120.4531 313° West 411 473 33,200 -2,164 Descending Seattle Center
Mon 06:23:05 PM 46.6375 -120.5894 305° West 411 473 31,000 -2,213 Descending Seattle Center
Mon 06:24:06 PM 46.7028 -120.7258 305° West 411 473 28,700 -2,146 Descending Seattle Center
Mon 06:25:08 PM 46.7661 -120.8614 304° West 409 471 26,600 -2,098 Descending Seattle Center
Mon 06:26:09 PM 46.8281 -120.9931 305° West 399 459 24,400 -2,066 Descending Seattle Center
Mon 06:27:10 PM 46.8892 -121.1203 305° West 390 449 22,400 -1,967 Descending Seattle Center
Mon 06:28:11 PM 46.9475 -121.2467 304° West 379 436 20,400 -2,152 Descending Seattle Center
Mon 06:28:42 PM 46.9864 -121.3286 305° West 370 426 19,100 -1,967 Descending Seattle Center
Mon 06:29:12 PM 47.0053 -121.3669 306° West 368 423 18,400 -1,978 Descending Seattle Center
Mon 06:30:13 PM 47.0708 -121.5125 304° West 349 402 16,100 -1,475 Descending Seattle Center
Mon 06:31:14 PM 47.1222 -121.6225 304° West 331 381 15,400 -689 Descending Seattle Center
Mon 06:32:15 PM 47.1722 -121.7300 304° West 315 362 14,700 -672 Descending Seattle Center
Mon 06:33:10 PM 47.2153 -121.8269 303° West 305 351 14,100 -893 Descending Seattle Center
Mon 06:34:16 PM 47.2653 -121.9331 305° West 296 341 12,900 -1,087 Descending Seattle Center
Mon 06:35:17 PM 47.3081 -122.0303 303° West 279 321 11,800 -934 Descending Seattle Center
Mon 06:36:18 PM 47.3536 -122.1294 304° West 275 316 11,000 -390 Descending Seattle Center
Mon 06:37:20 PM 47.3989 -122.2228 306° West 279 321 11,000 -82 Level Seattle Center
Mon 06:37:31 PM 47.4058 -122.2381 304° West 278 320 10,900 -984 Descending Seattle Center
Mon 06:38:21 PM 47.4431 -122.3133 306° West 264 304 10,000 -885 Descending Seattle Center
Mon 06:38:32 PM 47.4508 -122.3281 308° West 271 312 10,000 -909 Level Seattle Center
Mon 06:39:27 PM 47.4936 -122.4094 308° West 266 306 9,000 -1,211 Descending Seattle Center
Mon 06:40:21 PM 47.5336 -122.4889 307° West 266 306 7,800 -1,761 Descending Seattle Center
Mon 06:41:16 PM 47.5794 -122.5558 315° West 250 288 5,800 -2,236 Descending Seattle Center
Mon 06:42:11 PM 47.6378 -122.5500 North 253 291 3,700 -2,087 Descending Seattle Center
Mon 06:42:25 PM 47.6414 -122.5328 73° East 259 298 3,400 -1,343 Descending Seattle Center
Mon 06:43:18 PM 47.6361 -122.4458 95° East 231 266 2,200 -789 Descending Seattle Center
Mon 06:44:19 PM 47.6086 -122.3722 119° Southeast 200 230 1,900 -793 Descending Seattle Center
Mon 06:45:19 PM 47.5656 -122.3336 149° Southeast 181 208 600 -831 Descending Seattle Center
Mon 06:46:29 PM 47.5317 -122.3042 150° Southeast 142 163 100 -429 Descending Seattle Center

Login

Don't have an account? Register now (free) for customized features, flight alerts, and more!